Time;durP1;ratioP1;P1;durP2;ratioP2;P2;SDS_P1;SDS_P2;PMS_P1;PMS_P2;Temp;Humidity;BMP_temperature;BMP_pressure;BME280_temperature;BME280_humidity;BME280_pressure;Samples;Min_cycle;Max_cycle;Signal;HPM_P1;HPM_P2
2023/06/12 00:00:05;;;;;;;7.77;4.60;;;13.10;1.00;;;;;;5072811;28;20239;-69
2023/06/12 00:02:31;;;;;;;9.70;4.40;;;13.10;1.00;;;;;;5072168;28;20908;-70
2023/06/12 00:04:57;;;;;;;8.17;4.43;;;13.10;1.00;;;;;;5072600;28;20509;-69
2023/06/12 00:07:25;;;;;;;11.83;4.63;;;13.10;1.00;;;;;;5059060;28;20828;-70
2023/06/12 00:09:52;;;;;;;12.17;4.00;;;13.10;1.00;;;;;;5051326;28;20469;-69
2023/06/12 00:12:17;;;;;;;5.53;3.90;;;13.10;1.00;;;;;;5052122;28;20377;-69
2023/06/12 00:14:43;;;;;;;10.17;4.43;;;13.10;1.00;;;;;;5052802;28;20420;-68
2023/06/12 00:17:09;;;;;;;10.30;4.53;;;13.10;1.00;;;;;;5052601;28;20209;-69
2023/06/12 00:19:34;;;;;;;7.87;4.43;;;13.10;1.00;;;;;;5052297;28;20212;-70
2023/06/12 00:22:01;;;;;;;7.97;4.33;;;13.00;1.00;;;;;;5068289;28;20182;-69
2023/06/12 00:24:27;;;;;;;8.37;4.37;;;13.00;11.50;;;;;;5072596;28;20187;-69
2023/06/12 00:26:53;;;;;;;13.77;4.90;;;13.00;21.60;;;;;;5071762;28;20511;-70
2023/06/12 00:29:18;;;;;;;7.97;4.20;;;13.10;34.40;;;;;;5071860;28;20193;-69
2023/06/12 00:31:44;;;;;;;8.50;4.90;;;13.10;47.20;;;;;;5070445;28;20254;-69
2023/06/12 00:34:10;;;;;;;4.70;3.67;;;13.00;57.10;;;;;;5072708;28;20252;-69
2023/06/12 00:36:35;;;;;;;7.33;5.07;;;13.00;66.80;;;;;;5072313;28;20201;-69
2023/06/12 00:39:03;;;;;;;5.77;4.57;;;13.00;73.80;;;;;;5071775;28;20169;-69
2023/06/12 00:41:28;;;;;;;4.90;4.50;;;13.00;89.20;;;;;;5071692;28;20615;-69
2023/06/12 00:43:54;;;;;;;5.03;4.10;;;13.00;93.20;;;;;;5070334;28;20438;-70
2023/06/12 00:46:21;;;;;;;11.23;4.20;;;13.00;93.10;;;;;;5073254;28;20186;-70
2023/06/12 00:48:47;;;;;;;5.83;4.80;;;13.00;94.20;;;;;;5074600;28;20264;-68
2023/06/12 00:51:13;;;;;;;6.70;4.17;;;13.00;99.90;;;;;;5075216;28;20401;-69
2023/06/12 00:53:38;;;;;;;7.87;4.10;;;13.00;99.90;;;;;;5075987;28;20394;-69
2023/06/12 00:56:04;;;;;;;7.70;4.63;;;13.00;99.90;;;;;;5074664;28;20200;-70
2023/06/12 00:58:30;;;;;;;8.77;4.23;;;13.10;99.90;;;;;;5074758;28;20631;-69
2023/06/12 01:00:56;;;;;;;8.60;4.23;;;13.10;99.90;;;;;;5075115;28;20251;-71
2023/06/12 01:03:24;;;;;;;7.70;4.07;;;13.10;99.90;;;;;;5076000;28;20193;-69
2023/06/12 01:05:51;;;;;;;7.83;4.90;;;13.10;99.90;;;;;;5075810;28;20396;-69
2023/06/12 01:08:53;;;;;;;5.30;4.40;;;13.00;99.90;;;;;;5075947;28;20378;-70
2023/06/12 01:11:19;;;;;;;13.20;5.33;;;13.10;99.90;;;;;;5074356;28;20424;-69
2023/06/12 01:13:45;;;;;;;7.27;4.60;;;13.10;99.90;;;;;;5074814;28;20403;-72
2023/06/12 01:16:11;;;;;;;4.97;4.47;;;13.10;99.90;;;;;;5072889;28;20931;-70
2023/06/12 01:18:37;;;;;;;11.10;4.63;;;13.10;99.90;;;;;;5075549;28;20163;-69
2023/06/12 01:21:07;;;;;;;5.93;4.53;;;13.10;99.90;;;;;;5074911;28;20199;-69
2023/06/12 01:23:39;;;;;;;5.13;3.90;;;13.10;99.90;;;;;;5073467;28;20421;-68
2023/06/12 01:26:25;;;;;;;7.00;4.87;;;13.10;99.90;;;;;;5074638;28;20391;-69
2023/06/12 01:29:10;;;;;;;11.00;5.27;;;13.20;99.90;;;;;;5075610;28;20595;-70
2023/06/12 01:31:43;;;;;;;4.77;4.23;;;13.20;99.90;;;;;;5073671;28;20402;-70
2023/06/12 01:34:24;;;;;;;5.63;4.20;;;13.20;99.90;;;;;;5074470;28;20501;-69
2023/06/12 01:37:05;;;;;;;6.07;4.60;;;13.20;99.90;;;;;;5075464;28;20936;-68
2023/06/12 01:39:38;;;;;;;9.53;4.43;;;13.20;99.90;;;;;;5073898;28;20450;-70
2023/06/12 01:42:07;;;;;;;9.80;5.20;;;13.30;99.90;;;;;;5073443;28;20383;-69
2023/06/12 01:44:33;;;;;;;9.33;4.33;;;13.30;99.90;;;;;;5075091;28;20471;-69
2023/06/12 01:46:59;;;;;;;8.30;4.83;;;13.30;99.90;;;;;;5075205;28;20416;-69
2023/06/12 01:49:26;;;;;;;19.17;6.10;;;13.30;99.90;;;;;;5075144;28;20419;-68
2023/06/12 01:51:52;;;;;;;7.70;5.30;;;13.30;99.90;;;;;;5072168;28;20449;-69
2023/06/12 01:54:20;;;;;;;8.70;5.70;;;13.30;99.90;;;;;;5073731;28;20289;-69
2023/06/12 01:56:45;;;;;;;14.83;6.00;;;13.30;99.90;;;;;;5073868;28;20212;-68
2023/06/12 01:59:11;;;;;;;7.47;5.07;;;13.20;99.90;;;;;;5074720;28;20396;-70
2023/06/12 02:01:38;;;;;;;7.80;4.90;;;13.30;99.90;;;;;;5074064;28;20574;-69
2023/06/12 02:04:04;;;;;;;11.23;4.40;;;13.30;99.90;;;;;;5074679;28;20435;-69
2023/06/12 02:06:30;;;;;;;7.40;4.60;;;13.30;99.90;;;;;;5074549;28;20503;-70
2023/06/12 02:08:55;;;;;;;10.63;4.67;;;13.30;99.90;;;;;;5073201;28;20470;-70
2023/06/12 02:11:21;;;;;;;6.53;5.00;;;13.30;99.90;;;;;;5074036;28;20170;-69
2023/06/12 02:13:47;;;;;;;10.77;4.70;;;13.40;99.90;;;;;;5074628;28;20600;-70
2023/06/12 02:16:16;;;;;;;5.50;4.83;;;13.40;99.90;;;;;;5074705;28;20194;-70
2023/06/12 02:18:41;;;;;;;12.07;4.50;;;13.40;99.90;;;;;;5074703;28;20411;-69
2023/06/12 02:21:07;;;;;;;10.20;4.43;;;13.40;99.90;;;;;;5072852;28;20371;-69
2023/06/12 02:23:33;;;;;;;7.80;4.90;;;13.40;99.90;;;;;;5074479;28;20551;-70
2023/06/12 02:25:59;;;;;;;7.80;4.43;;;13.50;99.90;;;;;;5073537;28;20185;-70
2023/06/12 02:28:25;;;;;;;10.60;4.30;;;13.50;99.90;;;;;;5074317;28;20163;-68
2023/06/12 02:30:51;;;;;;;8.30;4.70;;;13.50;99.90;;;;;;5072453;28;20408;-69
2023/06/12 02:33:16;;;;;;;9.30;4.77;;;13.50;99.90;;;;;;5074246;28;20198;-69
2023/06/12 02:35:42;;;;;;;6.23;5.40;;;13.40;99.90;;;;;;5073323;28;20259;-69
2023/06/12 02:38:08;;;;;;;4.60;4.23;;;13.40;99.90;;;;;;5074303;28;20167;-69
2023/06/12 02:40:34;;;;;;;10.37;4.80;;;13.40;99.90;;;;;;5073236;28;20186;-68
2023/06/12 02:42:59;;;;;;;9.10;4.60;;;13.40;99.90;;;;;;5074050;28;20212;-70
2023/06/12 02:45:26;;;;;;;7.80;4.33;;;13.40;99.90;;;;;;5072733;28;20615;-71
2023/06/12 02:47:51;;;;;;;6.10;5.07;;;13.40;99.90;;;;;;5073704;28;20205;-69
2023/06/12 02:50:17;;;;;;;8.10;3.90;;;13.40;99.90;;;;;;5072988;28;20416;-70
2023/06/12 02:52:43;;;;;;;7.60;4.30;;;13.40;99.90;;;;;;5072087;28;20512;-69
2023/06/12 02:55:09;;;;;;;4.50;4.10;;;13.40;99.90;;;;;;5072656;28;20456;-68
2023/06/12 02:57:35;;;;;;;8.57;4.13;;;13.40;99.90;;;;;;5073778;28;20167;-70
2023/06/12 03:00:01;;;;;;;6.20;4.50;;;13.40;99.90;;;;;;5072270;28;20269;-69
2023/06/12 03:02:27;;;;;;;7.53;4.63;;;13.40;99.90;;;;;;5072809;28;20409;-70
2023/06/12 03:04:54;;;;;;;6.10;4.93;;;13.30;99.90;;;;;;5072835;28;20363;-69
2023/06/12 03:07:20;;;;;;;7.93;4.57;;;13.30;99.90;;;;;;5072781;28;20435;-69
2023/06/12 03:09:46;;;;;;;7.00;4.97;;;13.40;99.90;;;;;;5072786;28;20925;-69
2023/06/12 03:12:12;;;;;;;8.53;5.00;;;13.40;99.90;;;;;;5072765;28;20375;-69
2023/06/12 03:14:38;;;;;;;5.50;4.60;;;13.30;99.90;;;;;;5073338;28;20910;-69
2023/06/12 03:17:07;;;;;;;13.07;5.10;;;13.30;99.90;;;;;;5073363;28;20505;-69
2023/06/12 03:19:32;;;;;;;11.47;4.77;;;13.30;99.90;;;;;;5072634;28;20843;-70
2023/06/12 03:21:58;;;;;;;8.97;5.70;;;13.30;99.90;;;;;;5072590;28;20379;-69
2023/06/12 03:24:26;;;;;;;7.17;5.87;;;13.40;99.90;;;;;;5072313;28;20182;-69
2023/06/12 03:26:53;;;;;;;4.60;4.20;;;13.40;99.90;;;;;;5073327;28;20855;-69
2023/06/12 03:29:18;;;;;;;5.33;4.47;;;13.40;99.90;;;;;;5071229;28;20941;-69
2023/06/12 03:31:45;;;;;;;7.20;5.37;;;13.50;99.90;;;;;;5071285;28;20452;-69
2023/06/12 03:34:11;;;;;;;7.73;5.40;;;13.50;99.90;;;;;;5073342;28;20193;-69
2023/06/12 03:36:38;;;;;;;9.30;4.80;;;13.50;99.90;;;;;;5070863;28;20459;-68
2023/06/12 03:39:05;;;;;;;7.87;5.07;;;13.40;99.90;;;;;;5073143;28;20493;-68
2023/06/12 03:41:32;;;;;;;11.27;4.67;;;13.40;99.90;;;;;;5072376;28;20408;-69
2023/06/12 03:43:58;;;;;;;7.93;5.50;;;13.40;99.90;;;;;;5072063;28;20451;-68
2023/06/12 03:46:24;;;;;;;9.33;4.73;;;13.40;99.90;;;;;;5071311;28;20447;-67
2023/06/12 03:48:50;;;;;;;5.60;4.30;;;13.40;99.90;;;;;;5070367;28;20469;-67
2023/06/12 03:51:16;;;;;;;7.00;4.87;;;13.50;99.90;;;;;;5068697;28;20213;-66
2023/06/12 03:53:42;;;;;;;14.33;6.17;;;13.50;99.90;;;;;;5071914;28;20209;-66
2023/06/12 03:56:07;;;;;;;12.77;5.60;;;13.50;99.90;;;;;;5073068;28;20920;-67
2023/06/12 03:58:34;;;;;;;10.67;5.87;;;13.50;99.90;;;;;;5072986;28;20223;-67
2023/06/12 04:01:00;;;;;;;11.23;5.30;;;13.50;99.90;;;;;;5071093;28;20167;-67
2023/06/12 04:03:25;;;;;;;5.93;4.67;;;13.50;99.90;;;;;;5068240;28;20459;-67
2023/06/12 04:05:51;;;;;;;7.97;5.20;;;13.50;99.90;;;;;;5070706;28;20659;-67
2023/06/12 04:08:18;;;;;;;5.23;4.70;;;13.60;99.90;;;;;;5071019;28;20232;-67
2023/06/12 04:10:44;;;;;;;7.30;5.03;;;13.60;99.90;;;;;;5072124;28;20804;-68
2023/06/12 04:13:13;;;;;;;9.17;4.60;;;13.60;99.90;;;;;;5072708;28;20452;-67
2023/06/12 04:15:39;;;;;;;9.07;4.60;;;13.60;99.90;;;;;;5072819;28;20872;-67
2023/06/12 04:18:07;;;;;;;11.87;4.50;;;13.60;99.90;;;;;;5070482;28;20485;-67
2023/06/12 04:20:33;;;;;;;8.03;5.27;;;13.60;99.90;;;;;;5072292;28;20404;-68
2023/06/12 04:23:04;;;;;;;5.70;5.00;;;13.60;99.90;;;;;;5066338;28;20480;-68
2023/06/12 04:25:36;;;;;;;10.70;5.07;;;13.60;99.90;;;;;;5056793;28;20401;-68
2023/06/12 04:28:03;;;;;;;13.20;5.90;;;13.70;99.90;;;;;;5056724;28;20448;-69
2023/06/12 04:30:31;;;;;;;14.20;5.90;;;13.80;99.90;;;;;;5055796;28;20383;-69
2023/06/12 04:32:57;;;;;;;14.27;5.33;;;13.80;99.90;;;;;;5056423;28;20467;-71
2023/06/12 04:35:23;;;;;;;13.60;5.30;;;13.90;99.90;;;;;;5056511;28;20458;-70
2023/06/12 04:37:48;;;;;;;9.87;5.43;;;14.00;99.90;;;;;;5061389;28;20411;-68
2023/06/12 04:40:15;;;;;;;8.23;4.97;;;14.10;99.90;;;;;;5075239;28;20170;-70
2023/06/12 04:42:43;;;;;;;11.60;4.80;;;14.10;99.90;;;;;;5076055;28;20170;-67
2023/06/12 04:45:12;;;;;;;11.43;5.60;;;14.20;99.90;;;;;;5075229;28;20403;-70
2023/06/12 04:47:41;;;;;;;12.53;4.47;;;14.20;99.90;;;;;;5076199;28;20396;-69
2023/06/12 04:50:10;;;;;;;21.33;5.33;;;14.30;99.90;;;;;;5074794;28;20456;-70
2023/06/12 04:52:35;;;;;;;5.10;4.60;;;14.30;99.90;;;;;;5056189;28;20425;-68
2023/06/12 04:55:01;;;;;;;8.07;5.77;;;14.40;99.90;;;;;;5056089;28;20869;-69
2023/06/12 04:57:27;;;;;;;8.33;5.23;;;14.40;99.90;;;;;;5056023;28;20623;-70
2023/06/12 04:59:53;;;;;;;11.70;5.83;;;14.50;99.90;;;;;;5055525;28;20463;-73
2023/06/12 05:02:19;;;;;;;10.90;5.40;;;14.60;99.90;;;;;;5054825;28;20167;-69
2023/06/12 05:04:45;;;;;;;10.83;5.00;;;14.60;99.90;;;;;;5061800;28;20194;-69
2023/06/12 05:07:16;;;;;;;8.10;4.47;;;14.70;99.90;;;;;;5074890;28;20409;-69
2023/06/12 05:09:43;;;;;;;11.33;5.13;;;14.70;99.90;;;;;;5075816;28;20174;-69
2023/06/12 05:12:10;;;;;;;9.03;4.80;;;14.80;99.90;;;;;;5075130;28;20408;-69
2023/06/12 05:14:38;;;;;;;4.23;3.73;;;15.00;99.90;;;;;;5075819;28;20428;-69
2023/06/12 05:17:04;;;;;;;12.63;4.90;;;15.10;99.90;;;;;;5075782;28;20444;-69
2023/06/12 05:19:30;;;;;;;9.30;5.40;;;15.10;99.90;;;;;;5074129;28;20486;-70
2023/06/12 05:21:55;;;;;;;7.93;4.13;;;15.10;99.90;;;;;;5074568;28;20175;-69
2023/06/12 05:24:21;;;;;;;6.57;4.90;;;15.20;99.90;;;;;;5075521;28;20193;-70
2023/06/12 05:26:47;;;;;;;9.63;4.90;;;15.30;99.90;;;;;;5075738;28;20257;-69
2023/06/12 05:29:12;;;;;;;7.97;4.80;;;15.30;99.90;;;;;;5075574;28;20166;-69
2023/06/12 05:31:38;;;;;;;14.67;4.20;;;15.40;99.90;;;;;;5074035;28;20626;-69
2023/06/12 05:34:04;;;;;;;8.07;5.23;;;15.50;99.90;;;;;;5074356;28;20228;-69
2023/06/12 05:36:30;;;;;;;7.13;4.37;;;15.60;99.90;;;;;;5075405;28;20272;-69
2023/06/12 05:38:56;;;;;;;10.70;4.50;;;15.70;99.90;;;;;;5075366;28;20573;-70
2023/06/12 05:41:22;;;;;;;13.80;5.00;;;15.70;99.90;;;;;;5072831;28;20182;-69
2023/06/12 05:43:47;;;;;;;5.63;4.20;;;15.80;99.90;;;;;;5074032;28;20505;-70
2023/06/12 05:46:13;;;;;;;6.73;4.87;;;15.90;99.90;;;;;;5073500;28;20189;-70
2023/06/12 05:48:39;;;;;;;7.20;5.30;;;16.00;99.90;;;;;;5075341;28;20642;-69
2023/06/12 05:51:07;;;;;;;7.93;4.30;;;16.10;99.90;;;;;;5074289;28;20175;-70
2023/06/12 05:53:33;;;;;;;6.20;4.23;;;16.20;99.90;;;;;;5075127;28;20448;-71
2023/06/12 05:56:00;;;;;;;6.00;4.60;;;16.40;99.90;;;;;;5074981;28;20463;-70
2023/06/12 05:58:26;;;;;;;17.00;4.73;;;16.40;99.90;;;;;;5073969;28;20474;-70
2023/06/12 06:00:55;;;;;;;7.83;4.73;;;16.50;99.90;;;;;;5071506;28;20498;-71
2023/06/12 06:03:23;;;;;;;8.27;5.17;;;16.70;99.90;;;;;;5074329;28;20448;-68
2023/06/12 06:05:49;;;;;;;13.50;4.97;;;16.80;99.90;;;;;;5074718;28;20439;-69
2023/06/12 06:08:16;;;;;;;7.50;3.70;;;16.80;99.90;;;;;;5074794;28;20408;-70
2023/06/12 06:10:41;;;;;;;5.67;4.70;;;16.80;99.90;;;;;;5072966;28;20415;-69
2023/06/12 06:13:08;;;;;;;4.53;4.13;;;16.90;99.90;;;;;;5073640;28;20440;-69
2023/06/12 06:15:35;;;;;;;6.83;4.43;;;17.10;99.90;;;;;;5072909;28;20202;-71
2023/06/12 06:18:01;;;;;;;8.77;3.90;;;17.20;99.90;;;;;;5073710;28;20412;-70
2023/06/12 06:20:27;;;;;;;10.37;4.90;;;17.30;94.70;;;;;;5073661;28;20404;-69
2023/06/12 06:22:53;;;;;;;8.10;4.73;;;17.30;87.70;;;;;;5074528;28;20415;-71
2023/06/12 06:25:18;;;;;;;6.77;5.20;;;17.30;41.20;;;;;;5073255;28;20607;-69
2023/06/12 06:27:44;;;;;;;14.87;4.50;;;17.30;17.10;;;;;;5072560;28;20243;-71
2023/06/12 06:30:10;;;;;;;9.23;4.77;;;17.40;3.80;;;;;;5073504;28;20170;-69
2023/06/12 06:32:36;;;;;;;5.63;4.10;;;17.50;1.00;;;;;;5074253;28;20535;-69
2023/06/12 06:35:02;;;;;;;4.87;4.47;;;17.70;1.00;;;;;;5074239;28;20396;-69
2023/06/12 06:37:28;;;;;;;7.27;4.77;;;17.70;1.00;;;;;;5073441;28;20455;-69
2023/06/12 06:39:54;;;;;;;12.10;4.60;;;17.90;1.00;;;;;;5073886;28;20812;-70
2023/06/12 06:42:20;;;;;;;6.10;4.43;;;18.00;1.00;;;;;;5072309;28;20186;-71
2023/06/12 06:44:45;;;;;;;6.47;3.90;;;18.10;1.00;;;;;;5073983;28;20682;-69
2023/06/12 06:47:11;;;;;;;9.83;5.03;;;18.10;1.00;;;;;;5073408;28;20582;-69
2023/06/12 06:49:38;;;;;;;7.77;4.30;;;18.20;1.00;;;;;;5073961;28;20236;-70
2023/06/12 06:52:05;;;;;;;8.23;4.07;;;18.30;1.00;;;;;;5073131;28;20597;-69
2023/06/12 06:54:31;;;;;;;6.63;5.00;;;18.40;1.00;;;;;;5072768;28;20433;-69
2023/06/12 06:56:57;;;;;;;9.70;4.87;;;18.40;1.00;;;;;;5070939;28;20472;-69
2023/06/12 06:59:23;;;;;;;9.47;4.80;;;18.50;1.00;;;;;;5073365;28;20182;-70
2023/06/12 07:01:49;;;;;;;5.50;5.00;;;18.60;1.00;;;;;;5072880;28;20241;-69
2023/06/12 07:04:15;;;;;;;7.30;5.30;;;18.70;1.00;;;;;;5073546;28;20466;-70
2023/06/12 07:06:40;;;;;;;11.10;4.80;;;18.80;1.00;;;;;;5072490;28;20409;-69
2023/06/12 07:09:08;;;;;;;5.10;4.43;;;19.00;1.00;;;;;;5072363;28;20192;-69
2023/06/12 07:11:34;;;;;;;5.47;3.87;;;19.10;1.00;;;;;;5071705;28;20653;-70
2023/06/12 07:14:00;;;;;;;5.90;4.27;;;19.30;1.00;;;;;;5072503;28;20421;-69
2023/06/12 07:16:26;;;;;;;4.90;4.40;;;19.40;1.00;;;;;;5073360;28;20940;-70
2023/06/12 07:18:52;;;;;;;5.40;4.67;;;19.40;1.00;;;;;;5073480;28;20185;-69
2023/06/12 07:21:17;;;;;;;10.40;5.67;;;19.60;1.00;;;;;;5072575;28;20884;-70
2023/06/12 07:23:43;;;;;;;4.73;4.20;;;19.70;1.00;;;;;;5070870;28;20226;-69
2023/06/12 07:26:09;;;;;;;8.63;5.10;;;19.80;1.00;;;;;;5071895;28;20181;-70
2023/06/12 07:28:35;;;;;;;7.03;4.20;;;19.90;1.00;;;;;;5072549;28;20405;-69
2023/06/12 07:31:01;;;;;;;7.57;4.60;;;20.00;1.00;;;;;;5071474;28;20171;-69
2023/06/12 07:33:27;;;;;;;6.13;5.53;;;20.10;1.00;;;;;;5070481;28;20466;-69
2023/06/12 07:35:53;;;;;;;5.80;5.20;;;20.20;1.00;;;;;;5071815;28;20210;-70
2023/06/12 07:38:19;;;;;;;7.37;5.17;;;20.30;1.00;;;;;;5073142;28;20213;-70
2023/06/12 07:40:45;;;;;;;6.40;4.57;;;20.50;1.00;;;;;;5072280;28;20204;-69
2023/06/12 07:43:11;;;;;;;10.13;5.50;;;20.60;1.00;;;;;;5072114;28;20534;-70
2023/06/12 07:45:36;;;;;;;5.63;4.73;;;20.70;1.00;;;;;;5073123;28;20408;-70
2023/06/12 07:48:02;;;;;;;8.27;5.00;;;20.80;1.00;;;;;;5073140;28;20419;-70
2023/06/12 07:50:28;;;;;;;7.17;4.50;;;20.90;1.00;;;;;;5070262;28;20181;-71
2023/06/12 07:52:54;;;;;;;6.33;4.50;;;21.00;1.00;;;;;;5071832;28;20189;-69
2023/06/12 07:55:20;;;;;;;5.07;4.67;;;21.20;1.00;;;;;;5072505;28;20646;-69
2023/06/12 07:57:47;;;;;;;5.57;5.10;;;21.30;1.00;;;;;;5073045;28;20627;-70
2023/06/12 08:00:13;;;;;;;12.43;5.20;;;21.40;1.00;;;;;;5068765;28;20425;-70
2023/06/12 08:02:40;;;;;;;6.27;5.40;;;21.50;1.00;;;;;;5070288;28;20499;-69
2023/06/12 08:05:07;;;;;;;9.00;4.90;;;21.60;99.90;;;;;;5072802;28;20877;-69
2023/06/12 08:07:33;;;;;;;6.33;5.17;;;21.70;99.90;;;;;;5072921;28;20405;-70
2023/06/12 08:10:00;;;;;;;7.03;5.13;;;21.80;99.90;;;;;;5072005;28;20439;-71
2023/06/12 08:12:26;;;;;;;5.80;4.10;;;21.90;99.90;;;;;;5070267;28;20434;-70
2023/06/12 08:14:53;;;;;;;5.70;5.20;;;22.00;99.90;;;;;;5072644;28;20519;-72
2023/06/12 08:17:20;;;;;;;4.63;4.00;;;22.10;99.90;;;;;;5071738;28;20230;-69
2023/06/12 08:19:48;;;;;;;4.53;4.13;;;22.20;99.90;;;;;;5072773;28;20746;-69
2023/06/12 08:22:15;;;;;;;8.27;4.67;;;22.30;99.90;;;;;;5071036;28;20430;-70
2023/06/12 08:24:43;;;;;;;9.10;5.10;;;22.50;99.90;;;;;;5072691;28;20421;-70
2023/06/12 08:27:10;;;;;;;4.80;4.40;;;22.60;99.90;;;;;;5072575;28;20438;-69
2023/06/12 08:29:37;;;;;;;4.60;4.20;;;22.80;99.90;;;;;;5072115;28;20446;-70
2023/06/12 08:32:03;;;;;;;5.03;4.27;;;23.00;99.90;;;;;;5068973;28;20457;-70
2023/06/12 08:34:29;;;;;;;5.73;5.13;;;23.20;99.90;;;;;;5072615;28;20413;-70
2023/06/12 08:36:54;;;;;;;8.47;4.80;;;23.30;99.90;;;;;;5071283;28;20459;-70
2023/06/12 08:39:20;;;;;;;11.40;4.37;;;23.40;99.90;;;;;;5072664;28;20158;-68
2023/06/12 08:42:30;;;;;;;5.67;4.73;;;23.40;99.90;;;;;;5070978;28;20228;-69
2023/06/12 08:45:04;;;;;;;4.10;3.73;;;23.50;99.90;;;;;;5063331;28;20201;-70
2023/06/12 08:47:37;;;;;;;4.20;3.90;;;23.60;99.90;;;;;;5071978;28;20440;-69
2023/06/12 08:50:03;;;;;;;4.97;4.43;;;23.70;99.90;;;;;;5071036;28;20957;-70
2023/06/12 08:52:31;;;;;;;5.60;5.10;;;23.80;99.90;;;;;;5069233;28;20478;-69
2023/06/12 08:54:58;;;;;;;4.90;3.90;;;24.00;99.90;;;;;;5071595;28;20531;-70
2023/06/12 08:57:24;;;;;;;6.30;4.10;;;24.10;99.90;;;;;;5072376;28;20452;-69
2023/06/12 08:59:49;;;;;;;6.23;4.30;;;24.30;99.90;;;;;;5072165;28;20483;-70
2023/06/12 09:02:18;;;;;;;9.43;4.70;;;24.50;99.90;;;;;;5070873;28;20429;-71
2023/06/12 09:04:59;;;;;;;4.30;3.90;;;24.50;99.90;;;;;;5072149;28;20182;-71
2023/06/12 09:07:27;;;;;;;6.07;4.17;;;24.70;99.90;;;;;;5072846;28;20397;-69
2023/06/12 09:09:53;;;;;;;5.20;3.80;;;24.70;99.90;;;;;;5074411;28;20411;-75
2023/06/12 09:12:19;;;;;;;5.43;4.40;;;24.80;99.90;;;;;;5074397;28;20428;-70
2023/06/12 09:14:45;;;;;;;5.10;4.60;;;25.00;99.90;;;;;;5075052;28;20275;-71
2023/06/12 09:17:11;;;;;;;4.53;4.23;;;25.30;99.90;;;;;;5073677;28;20194;-71
2023/06/12 09:19:44;;;;;;;4.40;3.93;;;25.50;99.90;;;;;;5075789;28;20392;-70
2023/06/12 09:22:10;;;;;;;4.93;4.43;;;25.70;99.90;;;;;;5073578;28;20263;-69
2023/06/12 09:24:37;;;;;;;4.40;4.00;;;25.90;99.90;;;;;;5073691;28;20420;-70
2023/06/12 09:27:03;;;;;;;4.40;3.77;;;26.10;99.90;;;;;;5063431;28;20441;-70
2023/06/12 09:29:31;;;;;;;4.83;4.33;;;26.30;99.90;;;;;;5055558;28;20425;-70
2023/06/12 09:32:00;;;;;;;7.10;4.80;;;26.50;99.90;;;;;;5054661;28;20412;-70
2023/06/12 09:34:26;;;;;;;5.30;4.80;;;26.50;99.90;;;;;;5055431;28;20421;-71
2023/06/12 09:36:53;;;;;;;6.10;4.27;;;26.60;99.90;;;;;;5063871;28;20468;-69
2023/06/12 09:39:28;;;;;;;4.90;4.40;;;26.80;99.90;;;;;;5074503;28;20178;-70
2023/06/12 09:41:55;;;;;;;4.07;3.77;;;26.90;99.90;;;;;;5073820;28;20470;-70
2023/06/12 09:44:29;;;;;;;6.53;4.40;;;27.10;99.90;;;;;;5075173;28;20449;-71
2023/06/12 09:47:02;;;;;;;7.03;4.00;;;27.30;99.90;;;;;;5074420;28;20439;-70
2023/06/12 09:49:30;;;;;;;4.70;4.20;;;27.50;99.90;;;;;;5075208;28;20491;-71
2023/06/12 09:52:02;;;;;;;4.50;4.10;;;27.60;99.90;;;;;;5073143;28;20427;-71
2023/06/12 09:54:30;;;;;;;5.00;4.37;;;27.90;99.90;;;;;;5073226;28;20452;-68
2023/06/12 09:56:58;;;;;;;9.83;4.30;;;28.30;99.90;;;;;;5074893;28;20554;-71
2023/06/12 09:59:28;;;;;;;6.00;3.80;;;28.50;99.90;;;;;;5074424;28;20410;-69
2023/06/12 10:02:03;;;;;;;4.50;4.10;;;28.80;99.90;;;;;;5073902;28;20488;-70
2023/06/12 10:04:47;;;;;;;4.97;3.90;;;29.00;99.90;;;;;;5073483;28;20462;-71
2023/06/12 10:07:16;;;;;;;5.80;4.80;;;29.30;99.90;;;;;;5073787;28;20415;-69
2023/06/12 10:09:47;;;;;;;4.80;3.73;;;29.60;99.90;;;;;;5074684;28;20440;-72
2023/06/12 10:12:14;;;;;;;3.93;3.70;;;29.90;99.90;;;;;;5071873;28;20417;-71
2023/06/12 10:14:40;;;;;;;6.00;4.37;;;30.10;99.90;;;;;;5062705;28;21000;-71
2023/06/12 10:17:08;;;;;;;4.37;4.07;;;30.30;99.90;;;;;;5068108;28;20464;-71
2023/06/12 10:19:35;;;;;;;7.97;4.00;;;30.30;99.90;;;;;;5074068;28;20453;-71
2023/06/12 10:22:01;;;;;;;4.30;4.00;;;30.40;99.90;;;;;;5072485;28;20408;-71
2023/06/12 10:24:29;;;;;;;4.67;4.10;;;30.40;99.90;;;;;;5073587;28;20456;-70
2023/06/12 10:26:56;;;;;;;5.03;3.80;;;30.60;99.90;;;;;;5074479;28;20459;-74
2023/06/12 10:29:26;;;;;;;4.77;4.37;;;30.80;99.90;;;;;;5074350;28;20412;-70
2023/06/12 10:31:52;;;;;;;6.63;4.33;;;31.00;99.90;;;;;;5073336;28;20436;-72
2023/06/12 10:34:20;;;;;;;5.20;4.40;;;30.80;99.90;;;;;;5073386;28;20502;-72
2023/06/12 10:36:47;;;;;;;5.67;4.13;;;30.80;99.90;;;;;;5073576;28;20190;-72
2023/06/12 10:39:24;;;;;;;4.40;4.00;;;31.00;99.90;;;;;;5073939;28;20912;-73
2023/06/12 10:41:57;;;;;;;4.23;3.83;;;31.00;99.90;;;;;;5073263;28;20488;-72
2023/06/12 10:44:36;;;;;;;5.60;4.60;;;31.20;99.90;;;;;;5071863;28;20464;-73
2023/06/12 10:47:02;;;;;;;7.00;4.77;;;31.50;99.90;;;;;;5073935;28;20431;-73
2023/06/12 10:49:29;;;;;;;5.23;3.97;;;31.50;99.90;;;;;;5074042;28;20458;-71
2023/06/12 10:51:57;;;;;;;4.43;4.03;;;30.80;99.90;;;;;;5073037;28;20483;-70
2023/06/12 10:54:26;;;;;;;4.90;4.50;;;30.50;99.90;;;;;;5072266;28;20465;-74
2023/06/12 10:56:59;;;;;;;5.23;4.57;;;30.50;99.90;;;;;;5073528;28;20458;-71
2023/06/12 10:59:35;;;;;;;5.73;3.80;;;30.80;99.90;;;;;;5073756;28;20640;-71
2023/06/12 11:02:04;;;;;;;6.57;4.80;;;31.10;99.90;;;;;;5066067;28;20467;-72
2023/06/12 11:04:37;;;;;;;4.47;4.07;;;31.30;99.90;;;;;;5053583;28;20425;-72
2023/06/12 11:07:04;;;;;;;5.93;4.73;;;31.50;99.90;;;;;;5053688;28;20401;-73
2023/06/12 11:09:40;;;;;;;8.00;4.57;;;31.60;99.90;;;;;;5053708;28;20452;-72
2023/06/12 11:12:09;;;;;;;5.13;4.63;;;32.00;99.90;;;;;;5056153;28;20932;-74
2023/06/12 11:14:35;;;;;;;5.63;4.40;;;32.20;99.90;;;;;;5073242;28;20515;-71
2023/06/12 11:17:00;;;;;;;5.40;3.70;;;32.30;99.90;;;;;;5072197;28;21044;-73
2023/06/12 11:19:28;;;;;;;6.30;4.80;;;32.40;99.90;;;;;;5073466;28;20299;-72
2023/06/12 11:21:55;;;;;;;4.93;4.10;;;32.00;99.90;;;;;;5071383;28;20174;-72
2023/06/12 11:24:22;;;;;;;5.00;4.57;;;32.10;99.90;;;;;;5073105;28;20507;-73
2023/06/12 11:26:51;;;;;;;5.37;4.87;;;32.40;99.90;;;;;;5073283;28;20416;-72
2023/06/12 11:29:18;;;;;;;4.77;4.40;;;32.70;99.90;;;;;;5072902;28;20415;-71
2023/06/12 11:32:05;;;;;;;5.33;4.57;;;33.00;99.90;;;;;;5070623;28;20429;-73
2023/06/12 11:34:34;;;;;;;7.10;3.80;;;33.20;99.90;;;;;;5072906;28;20436;-73
2023/06/12 11:37:14;;;;;;;4.87;4.20;;;33.50;99.90;;;;;;5073248;28;20809;-72
2023/06/12 11:39:40;;;;;;;5.20;4.80;;;33.50;99.90;;;;;;5073256;28;20396;-69
2023/06/12 11:42:12;;;;;;;8.73;4.00;;;33.40;99.90;;;;;;5071359;28;20779;-73
2023/06/12 11:44:39;;;;;;;7.23;4.47;;;33.70;99.90;;;;;;5072805;28;20198;-71
2023/06/12 11:47:06;;;;;;;7.43;5.00;;;34.10;99.90;;;;;;5072736;28;20765;-71
2023/06/12 11:49:34;;;;;;;7.60;5.53;;;34.00;99.90;;;;;;5073021;28;20914;-71
2023/06/12 11:52:00;;;;;;;4.87;4.43;;;33.60;99.90;;;;;;5071314;28;20485;-72
2023/06/12 11:54:26;;;;;;;5.90;3.90;;;33.60;99.90;;;;;;5072890;28;20519;-72
2023/06/12 11:56:52;;;;;;;4.47;4.13;;;33.50;99.90;;;;;;5071689;28;20538;-71
2023/06/12 11:59:20;;;;;;;5.07;4.67;;;33.60;99.90;;;;;;5072893;28;20168;-70
2023/06/12 12:01:48;;;;;;;7.13;4.77;;;33.90;99.90;;;;;;5070729;28;20202;-73
2023/06/12 12:04:17;;;;;;;5.87;4.70;;;33.90;99.90;;;;;;5072826;28;20425;-71
2023/06/12 12:06:47;;;;;;;5.37;4.87;;;34.10;99.90;;;;;;5072171;28;20435;-72
2023/06/12 12:09:14;;;;;;;5.13;4.73;;;34.70;99.90;;;;;;5071803;28;20428;-72
2023/06/12 12:11:40;;;;;;;4.93;4.43;;;34.70;99.90;;;;;;5072050;28;20796;-70
2023/06/12 12:14:05;;;;;;;4.97;4.67;;;34.00;99.90;;;;;;5071913;28;20534;-71
2023/06/12 12:16:39;;;;;;;4.63;4.33;;;34.00;99.90;;;;;;5072638;28;20250;-74
2023/06/12 12:19:20;;;;;;;5.30;4.80;;;34.10;99.90;;;;;;5070984;28;20181;-73
2023/06/12 12:21:47;;;;;;;4.20;3.90;;;34.10;99.90;;;;;;5071791;28;20389;-71
2023/06/12 12:24:12;;;;;;;6.40;3.80;;;34.70;99.90;;;;;;5071632;28;20933;-71
2023/06/12 12:26:49;;;;;;;8.23;3.90;;;34.40;99.90;;;;;;5072041;28;20404;-73
2023/06/12 12:29:15;;;;;;;4.17;3.77;;;34.00;99.90;;;;;;5071676;28;20534;-71
2023/06/12 12:31:41;;;;;;;7.03;3.93;;;34.20;99.90;;;;;;5071828;28;20407;-73
2023/06/12 12:34:08;;;;;;;4.70;4.00;;;34.00;99.90;;;;;;5072575;28;20295;-70
2023/06/12 12:36:34;;;;;;;4.70;3.63;;;33.90;99.90;;;;;;5072497;28;20194;-71
2023/06/12 12:39:00;;;;;;;3.97;3.67;;;33.30;99.90;;;;;;5071596;28;20474;-70
2023/06/12 12:41:26;;;;;;;3.73;3.37;;;33.50;99.90;;;;;;5071684;28;20431;-72
2023/06/12 12:43:52;;;;;;;11.63;3.37;;;33.70;99.90;;;;;;5074673;28;20268;-74
2023/06/12 12:46:18;;;;;;;4.57;3.57;;;33.50;99.90;;;;;;5075859;28;20404;-71